createdAt,value
2023-08-20T00:01:13.582Z,10.38
2023-08-20T00:03:42.021Z,8.65
2023-08-20T00:06:09.008Z,6.55
2023-08-20T00:08:36.262Z,6.53
2023-08-20T00:11:03.967Z,8.98
2023-08-20T00:13:30.598Z,11.05
2023-08-20T00:15:57.808Z,8.98
2023-08-20T00:18:24.969Z,10.75
2023-08-20T00:20:51.911Z,10.48
2023-08-20T00:23:19.018Z,11.80
2023-08-20T00:25:45.990Z,7.00
2023-08-20T00:28:12.655Z,7.50
2023-08-20T00:30:39.460Z,9.02
2023-08-20T00:33:06.437Z,7.32
2023-08-20T00:35:33.246Z,8.85
2023-08-20T00:38:00.227Z,7.05
2023-08-20T00:40:27.534Z,5.97
2023-08-20T00:42:54.248Z,8.25
2023-08-20T00:45:23.670Z,8.10
2023-08-20T00:47:51.686Z,10.23
2023-08-20T00:50:19.604Z,7.53
2023-08-20T00:52:47.855Z,5.57
2023-08-20T00:55:14.615Z,9.93
2023-08-20T00:57:41.743Z,7.80
2023-08-20T01:00:10.589Z,9.55
2023-08-20T01:10:09.300Z,6.13
2023-08-20T01:12:37.382Z,6.80
2023-08-20T01:15:04.218Z,5.07
2023-08-20T01:17:31.014Z,6.18
2023-08-20T01:19:59.432Z,5.75
2023-08-20T01:22:26.073Z,4.03
2023-08-20T01:25:30.725Z,5.75
2023-08-20T01:28:20.819Z,8.45
2023-08-20T01:30:48.420Z,7.43
2023-08-20T01:33:16.106Z,6.13
2023-08-20T01:35:43.247Z,6.82
2023-08-20T01:38:16.188Z,3.17
2023-08-20T01:40:43.285Z,4.90
2023-08-20T01:43:09.971Z,5.78
2023-08-20T01:45:37.188Z,5.55
2023-08-20T01:48:05.127Z,4.30
2023-08-20T01:50:32.278Z,5.97
2023-08-20T01:52:58.995Z,6.57
2023-08-20T01:55:25.721Z,3.72
2023-08-20T01:57:52.399Z,4.85
2023-08-20T02:00:19.277Z,6.18
2023-08-20T02:02:45.921Z,7.18
2023-08-20T02:05:13.564Z,5.03
2023-08-20T02:07:40.426Z,4.47
2023-08-20T02:10:07.844Z,3.63
2023-08-20T02:12:34.467Z,5.13
2023-08-20T02:15:01.238Z,6.20
2023-08-20T02:17:27.827Z,5.38
2023-08-20T02:19:54.498Z,3.75
2023-08-20T02:22:22.020Z,3.28
2023-08-20T02:24:48.817Z,5.55
2023-08-20T02:27:16.559Z,5.95
2023-08-20T02:29:44.626Z,5.38
2023-08-20T02:32:14.769Z,2.70
2023-08-20T02:34:41.546Z,4.15
2023-08-20T02:37:08.469Z,4.82
2023-08-20T02:39:35.283Z,4.28
2023-08-20T02:42:02.169Z,4.28
2023-08-20T02:44:28.905Z,3.25
2023-08-20T02:46:55.682Z,4.57
2023-08-20T02:49:24.509Z,3.70
2023-08-20T02:51:51.210Z,3.47
2023-08-20T02:54:18.167Z,3.15
2023-08-20T02:56:44.870Z,3.67
2023-08-20T02:59:11.575Z,3.15
2023-08-20T03:01:38.267Z,4.82
2023-08-20T03:04:05.440Z,5.13
2023-08-20T03:06:32.839Z,2.95
2023-08-20T03:08:59.734Z,4.40
2023-08-20T03:11:26.641Z,3.75
2023-08-20T03:13:53.563Z,3.90
2023-08-20T03:16:20.274Z,3.88
2023-08-20T03:18:47.037Z,2.90
2023-08-20T03:21:13.895Z,4.75
2023-08-20T03:23:40.580Z,4.68
2023-08-20T03:26:07.255Z,4.03
2023-08-20T03:28:34.185Z,3.75
2023-08-20T03:31:02.287Z,3.22
2023-08-20T03:33:32.976Z,2.95
2023-08-20T03:36:00.457Z,4.07
2023-08-20T03:38:27.842Z,3.27
2023-08-20T03:40:56.294Z,2.65
2023-08-20T03:43:23.204Z,5.00
2023-08-20T03:45:53.725Z,4.45
2023-08-20T03:48:21.497Z,4.00
2023-08-20T03:50:48.422Z,3.42
2023-08-20T03:53:16.804Z,3.30
2023-08-20T03:55:49.244Z,2.60
2023-08-20T03:58:16.891Z,3.45
2023-08-20T04:00:45.171Z,4.45
2023-08-20T04:03:12.140Z,3.33
2023-08-20T04:05:39.439Z,2.90
2023-08-20T04:08:07.545Z,3.95
2023-08-20T04:10:34.842Z,3.40
2023-08-20T04:13:01.803Z,4.43
2023-08-20T04:15:28.698Z,3.38
2023-08-20T04:17:55.654Z,2.90
2023-08-20T04:20:22.517Z,2.75
2023-08-20T04:22:50.038Z,3.78
2023-08-20T04:25:17.048Z,3.03
2023-08-20T04:27:43.899Z,3.08
2023-08-20T04:30:11.359Z,4.07
2023-08-20T04:32:38.262Z,4.18
2023-08-20T04:35:05.545Z,3.78
2023-08-20T04:37:34.092Z,6.68
2023-08-20T04:40:01.996Z,2.75
2023-08-20T04:42:29.828Z,3.90
2023-08-20T04:44:57.008Z,2.70
2023-08-20T04:47:25.477Z,3.60
2023-08-20T04:49:52.270Z,4.15
2023-08-20T04:52:21.476Z,3.47
2023-08-20T04:54:48.835Z,2.65
2023-08-20T04:57:17.249Z,4.80
2023-08-20T04:59:46.332Z,3.13
2023-08-20T05:02:21.491Z,3.30
2023-08-20T05:04:54.454Z,4.75
2023-08-20T05:07:21.638Z,4.22
2023-08-20T05:09:48.671Z,2.92
2023-08-20T05:12:15.487Z,2.85
2023-08-20T05:14:42.240Z,3.17
2023-08-20T05:17:09.863Z,3.15
2023-08-20T05:19:36.598Z,3.63
2023-08-20T05:22:03.498Z,3.67
2023-08-20T05:24:33.973Z,2.85
2023-08-20T05:27:12.097Z,3.83
2023-08-20T05:29:39.709Z,4.05
2023-08-20T05:32:08.215Z,3.00
2023-08-20T05:34:35.638Z,2.83
2023-08-20T05:37:02.969Z,3.95
2023-08-20T05:39:31.706Z,3.45
2023-08-20T05:41:58.434Z,3.15
2023-08-20T05:44:27.082Z,3.17
2023-08-20T05:46:54.059Z,4.97
2023-08-20T05:49:24.018Z,3.50
2023-08-20T05:51:51.295Z,3.08
2023-08-20T05:54:18.916Z,4.03
2023-08-20T05:56:46.254Z,3.00
2023-08-20T05:59:13.200Z,3.60
2023-08-20T06:01:40.064Z,2.85
2023-08-20T06:04:07.572Z,3.45
2023-08-20T06:06:34.363Z,3.67
2023-08-20T06:09:08.300Z,2.97
2023-08-20T06:11:36.288Z,3.35
2023-08-20T06:14:03.894Z,2.90
2023-08-20T06:16:31.016Z,3.50
2023-08-20T06:19:01.819Z,2.95
2023-08-20T06:21:30.415Z,4.32
2023-08-20T06:23:57.208Z,5.15
2023-08-20T06:26:24.074Z,3.15
2023-08-20T06:28:50.904Z,2.72
2023-08-20T06:31:17.828Z,3.78
2023-08-20T06:33:44.768Z,3.15
2023-08-20T06:36:11.681Z,3.13
2023-08-20T06:38:38.293Z,3.15
2023-08-20T06:41:05.299Z,2.92
2023-08-20T06:43:32.404Z,3.08
2023-08-20T06:45:59.147Z,2.85
2023-08-20T06:48:26.162Z,2.90
2023-08-20T06:50:53.126Z,2.88
2023-08-20T06:53:19.716Z,3.47
2023-08-20T06:55:46.707Z,3.00
2023-08-20T06:58:13.378Z,3.03
2023-08-20T07:00:40.177Z,2.65
2023-08-20T07:03:07.173Z,3.67
2023-08-20T07:05:33.981Z,4.07
2023-08-20T07:08:00.860Z,2.80
2023-08-20T07:10:27.848Z,3.03
2023-08-20T07:12:56.415Z,3.50
2023-08-20T07:15:23.261Z,2.97
2023-08-20T07:17:50.063Z,3.60
2023-08-20T07:20:16.897Z,4.63
2023-08-20T07:22:43.651Z,3.42
2023-08-20T07:25:11.728Z,2.75
2023-08-20T07:27:38.562Z,3.17
2023-08-20T07:30:05.949Z,3.33
2023-08-20T07:32:32.812Z,4.13
2023-08-20T07:34:59.536Z,4.22
2023-08-20T07:37:26.955Z,4.20
2023-08-20T07:39:53.690Z,2.83
2023-08-20T07:42:20.480Z,2.72
2023-08-20T07:44:47.155Z,3.03
2023-08-20T07:47:14.012Z,2.67
2023-08-20T07:49:40.787Z,2.72
2023-08-20T07:52:07.441Z,3.60
2023-08-20T07:54:34.378Z,3.33
2023-08-20T07:57:01.032Z,3.53
2023-08-20T07:59:27.728Z,3.00
2023-08-20T08:01:54.672Z,2.95
2023-08-20T08:04:21.617Z,3.20
2023-08-20T08:06:48.568Z,4.22
2023-08-20T08:09:28.987Z,3.50
2023-08-20T08:11:56.383Z,2.92
2023-08-20T08:14:23.063Z,2.47
2023-08-20T08:16:50.335Z,3.42
2023-08-20T08:19:17.608Z,2.83
2023-08-20T08:21:45.391Z,3.65
2023-08-20T08:24:13.197Z,3.42
2023-08-20T08:26:40.524Z,3.80
2023-08-20T08:29:08.585Z,3.10
2023-08-20T08:31:35.892Z,3.10
2023-08-20T08:34:04.718Z,3.75
2023-08-20T08:36:31.464Z,3.50
2023-08-20T08:38:58.172Z,2.80
2023-08-20T08:41:27.074Z,4.20
2023-08-20T08:46:22.137Z,3.78
2023-08-20T08:48:50.188Z,4.18
2023-08-20T08:51:17.886Z,2.87
2023-08-20T08:53:47.329Z,3.72
2023-08-20T08:56:14.264Z,3.35
2023-08-20T08:58:41.371Z,3.53
2023-08-20T09:01:08.148Z,4.57
2023-08-20T09:03:34.929Z,4.47
2023-08-20T09:06:04.415Z,4.40
2023-08-20T09:08:32.750Z,3.13
2023-08-20T09:11:01.219Z,3.90
2023-08-20T09:13:33.717Z,3.08
2023-08-20T09:16:00.951Z,4.70
2023-08-20T09:18:27.604Z,3.15
2023-08-20T09:20:54.386Z,3.42
2023-08-20T09:23:21.299Z,4.22
2023-08-20T09:25:48.250Z,4.70
2023-08-20T09:28:15.527Z,4.95
2023-08-20T09:30:56.256Z,4.43
2023-08-20T09:33:23.491Z,5.55
2023-08-20T09:35:51.365Z,6.18
2023-08-20T09:38:24.173Z,5.50
2023-08-20T09:40:57.169Z,7.55
2023-08-20T09:43:29.178Z,5.55
2023-08-20T09:45:57.824Z,6.50
2023-08-20T09:48:27.627Z,5.72
2023-08-20T09:51:00.070Z,5.32
2023-08-20T09:53:40.946Z,9.15
2023-08-20T09:56:35.396Z,4.97
2023-08-20T09:59:03.007Z,6.65
2023-08-20T10:01:31.400Z,7.03
2023-08-20T10:03:58.747Z,5.88
2023-08-20T10:06:26.158Z,5.63
2023-08-20T10:08:54.938Z,7.90
2023-08-20T10:11:21.761Z,9.65
2023-08-20T10:13:48.541Z,6.43
2023-08-20T10:16:22.091Z,5.95
2023-08-20T10:18:49.137Z,4.43
2023-08-20T10:21:15.806Z,7.13
2023-08-20T10:23:43.413Z,4.63
2023-08-20T10:26:11.671Z,5.38
2023-08-20T10:28:38.637Z,5.88
2023-08-20T10:31:13.630Z,5.95
2023-08-20T10:33:51.139Z,6.78
2023-08-20T10:36:24.386Z,6.15
2023-08-20T10:38:51.770Z,5.55
2023-08-20T10:41:26.563Z,4.70
2023-08-20T10:43:54.254Z,5.72
2023-08-20T10:46:22.766Z,4.55
2023-08-20T10:48:54.362Z,6.05
2023-08-20T10:51:26.416Z,5.60
2023-08-20T10:54:01.962Z,6.03
2023-08-20T10:56:44.836Z,5.53
2023-08-20T10:59:14.211Z,4.22
2023-08-20T11:01:43.824Z,5.05
2023-08-20T11:04:10.638Z,4.75
2023-08-20T11:06:37.818Z,4.85
2023-08-20T11:09:04.919Z,3.88
2023-08-20T11:11:32.456Z,3.88
2023-08-20T11:14:08.485Z,4.28
2023-08-20T11:16:37.292Z,4.75
2023-08-20T11:19:09.683Z,3.70
2023-08-20T11:21:38.738Z,4.90
2023-08-20T11:24:06.332Z,3.75
2023-08-20T11:26:35.840Z,4.20
2023-08-20T11:29:22.448Z,3.25
2023-08-20T11:31:50.959Z,3.35
2023-08-20T11:34:20.303Z,4.10
2023-08-20T11:36:47.245Z,3.78
2023-08-20T11:39:13.992Z,3.50
2023-08-20T11:41:41.681Z,3.92
2023-08-20T11:44:11.893Z,3.38
2023-08-20T11:46:45.683Z,3.33
2023-08-20T11:49:14.162Z,3.63
2023-08-20T11:51:43.728Z,3.03
2023-08-20T11:54:15.676Z,3.65
2023-08-20T11:56:50.425Z,3.25
2023-08-20T11:59:19.657Z,3.10
2023-08-20T12:01:53.159Z,3.00
2023-08-20T12:04:20.235Z,3.10
2023-08-20T12:07:04.016Z,3.53
2023-08-20T12:09:30.985Z,4.65
2023-08-20T12:11:59.051Z,3.10
2023-08-20T12:14:26.052Z,3.28
2023-08-20T12:16:54.628Z,5.60
2023-08-20T12:19:21.443Z,3.38
2023-08-20T12:21:48.583Z,3.15
2023-08-20T12:24:15.929Z,3.70
2023-08-20T12:26:43.058Z,2.92
2023-08-20T12:29:09.997Z,3.13
2023-08-20T12:31:36.854Z,3.50
2023-08-20T12:34:04.464Z,2.78
2023-08-20T12:36:31.484Z,3.28
2023-08-20T12:38:58.432Z,3.65
2023-08-20T12:41:25.344Z,2.67
2023-08-20T12:43:52.164Z,3.55
2023-08-20T12:46:20.831Z,2.80
2023-08-20T12:51:15.125Z,3.80
2023-08-20T12:53:42.045Z,2.63
2023-08-20T12:56:09.016Z,3.42
2023-08-20T12:58:35.792Z,3.45
2023-08-20T13:01:03.254Z,2.72
2023-08-20T13:03:30.360Z,2.75
2023-08-20T13:05:58.545Z,3.45
2023-08-20T13:08:26.345Z,2.63
2023-08-20T13:10:57.907Z,3.13
2023-08-20T13:13:25.752Z,2.38
2023-08-20T13:15:54.631Z,3.10
2023-08-20T13:18:26.166Z,3.42
2023-08-20T13:20:56.565Z,2.85
2023-08-20T13:23:24.766Z,4.53
2023-08-20T13:25:51.663Z,2.70
2023-08-20T13:28:19.245Z,2.92
2023-08-20T13:30:46.841Z,2.47
2023-08-20T13:33:16.449Z,3.53
2023-08-20T13:35:43.393Z,2.90
2023-08-20T13:38:10.711Z,2.60
2023-08-20T13:40:37.541Z,3.33
2023-08-20T13:43:04.528Z,3.55
2023-08-20T13:45:32.149Z,2.90
2023-08-20T13:47:58.942Z,2.78
2023-08-20T13:50:26.314Z,2.90
2023-08-20T13:52:53.117Z,2.20
2023-08-20T13:55:20.118Z,2.67
2023-08-20T13:57:46.970Z,3.72
2023-08-20T14:00:14.222Z,2.53
2023-08-20T14:02:41.539Z,2.53
2023-08-20T14:05:08.739Z,3.13
2023-08-20T14:07:35.654Z,2.78
2023-08-20T14:10:05.211Z,2.22
2023-08-20T14:12:32.248Z,3.67
2023-08-20T14:14:59.301Z,2.65
2023-08-20T14:17:26.419Z,1.90
2023-08-20T14:19:53.417Z,3.38
2023-08-20T14:22:20.335Z,2.45
2023-08-20T14:24:47.318Z,2.22
2023-08-20T14:27:14.229Z,3.83
2023-08-20T14:29:42.696Z,2.53
2023-08-20T14:32:09.753Z,2.78
2023-08-20T14:34:36.778Z,3.08
2023-08-20T14:37:04.595Z,2.00
2023-08-20T14:39:32.787Z,2.38
2023-08-20T14:42:00.424Z,3.17
2023-08-20T14:44:28.143Z,2.60
2023-08-20T14:46:54.850Z,2.47
2023-08-20T14:49:21.754Z,3.45
2023-08-20T14:51:49.863Z,1.90
2023-08-20T14:54:16.643Z,2.57
2023-08-20T14:56:44.715Z,3.05
2023-08-20T14:59:11.585Z,2.08
2023-08-20T15:01:38.389Z,2.55
2023-08-20T15:04:05.437Z,3.47
2023-08-20T15:06:32.073Z,2.72
2023-08-20T15:08:58.912Z,1.70
2023-08-20T15:11:26.283Z,2.20
2023-08-20T15:13:53.197Z,2.60
2023-08-20T15:16:19.896Z,2.90
2023-08-20T15:18:46.671Z,2.00
2023-08-20T15:21:13.393Z,2.13
2023-08-20T15:23:40.413Z,2.08
2023-08-20T15:26:07.257Z,2.60
2023-08-20T15:28:34.196Z,1.75
2023-08-20T15:31:02.408Z,2.45
2023-08-20T15:33:29.832Z,2.10
2023-08-20T15:35:59.342Z,4.03
2023-08-20T15:38:26.542Z,1.88
2023-08-20T15:40:55.677Z,2.10
2023-08-20T15:43:22.507Z,3.28
2023-08-20T15:45:49.342Z,2.05
2023-08-20T15:48:16.502Z,1.67
2023-08-20T15:50:43.238Z,3.72
2023-08-20T15:53:10.046Z,2.03
2023-08-20T15:55:36.813Z,2.60
2023-08-20T15:58:04.150Z,2.38
2023-08-20T16:00:31.144Z,1.85
2023-08-20T16:02:58.572Z,2.88
2023-08-20T16:05:25.411Z,3.22
2023-08-20T16:07:52.357Z,2.88
2023-08-20T16:10:19.499Z,1.70
2023-08-20T16:12:46.274Z,1.60
2023-08-20T16:15:13.374Z,3.03
2023-08-20T16:17:40.758Z,2.65
2023-08-20T16:20:08.780Z,2.60
2023-08-20T16:22:36.333Z,2.30
2023-08-20T16:25:06.266Z,2.22
2023-08-20T16:27:34.099Z,2.85
2023-08-20T16:30:02.235Z,2.80
2023-08-20T16:32:29.045Z,2.75
2023-08-20T16:34:56.928Z,1.60
2023-08-20T16:37:23.828Z,1.97
2023-08-20T16:39:50.641Z,4.45
2023-08-20T16:42:17.552Z,2.33
2023-08-20T16:44:45.151Z,1.70
2023-08-20T16:47:12.827Z,1.50
2023-08-20T16:49:41.788Z,3.05
2023-08-20T16:52:08.709Z,2.42
2023-08-20T16:54:35.666Z,2.20
2023-08-20T16:57:02.356Z,1.60
2023-08-20T16:59:29.188Z,2.47
2023-08-20T17:01:56.042Z,2.38
2023-08-20T17:04:22.834Z,3.35
2023-08-20T17:06:50.883Z,2.55
2023-08-20T17:09:20.664Z,2.17
2023-08-20T17:11:47.427Z,4.72
2023-08-20T17:14:14.571Z,3.15
2023-08-20T17:16:42.052Z,6.40
2023-08-20T17:19:08.830Z,3.15
2023-08-20T17:21:35.704Z,4.30
2023-08-20T17:24:02.830Z,4.20
2023-08-20T17:26:29.799Z,2.92
2023-08-20T17:28:56.496Z,2.85
2023-08-20T17:31:23.268Z,3.90
2023-08-20T17:33:49.971Z,1.90
2023-08-20T17:36:16.727Z,2.38
2023-08-20T17:38:43.615Z,3.78
2023-08-20T17:41:10.620Z,2.70
2023-08-20T17:43:37.256Z,3.40
2023-08-20T17:46:04.295Z,3.33
2023-08-20T17:48:31.215Z,2.25
2023-08-20T17:50:58.099Z,3.72
2023-08-20T17:53:29.847Z,2.22
2023-08-20T17:55:58.655Z,2.15
2023-08-20T17:58:27.171Z,1.67
2023-08-20T18:00:53.988Z,2.65
2023-08-20T18:03:20.927Z,4.10
2023-08-20T18:05:47.813Z,2.00
2023-08-20T18:08:14.731Z,4.22
2023-08-20T18:10:41.593Z,2.60
2023-08-20T18:13:09.183Z,2.78
2023-08-20T18:15:36.884Z,2.10
2023-08-20T18:18:03.785Z,3.92
2023-08-20T18:20:30.552Z,1.95
2023-08-20T18:22:57.306Z,2.10
2023-08-20T18:25:24.180Z,2.92
2023-08-20T18:27:51.131Z,3.55
2023-08-20T18:30:17.955Z,2.28
2023-08-20T18:32:44.836Z,2.17
2023-08-20T18:35:11.930Z,2.67
2023-08-20T18:37:39.084Z,3.72
2023-08-20T18:40:10.511Z,2.78
2023-08-20T18:42:39.209Z,2.30
2023-08-20T18:47:33.484Z,3.40
2023-08-20T18:50:00.476Z,2.85
2023-08-20T18:52:27.495Z,2.70
2023-08-20T18:54:54.359Z,1.88
2023-08-20T18:57:21.324Z,3.92
2023-08-20T18:59:48.258Z,2.38
2023-08-20T19:02:15.249Z,1.88
2023-08-20T19:04:42.094Z,3.58
2023-08-20T19:07:09.821Z,5.03
2023-08-20T19:09:36.764Z,2.75
2023-08-20T19:12:03.761Z,3.03
2023-08-20T19:14:30.603Z,2.72
2023-08-20T19:16:57.505Z,1.98
2023-08-20T19:19:24.861Z,2.53
2023-08-20T19:21:54.116Z,7.15
2023-08-20T19:24:21.121Z,2.65
2023-08-20T19:26:47.843Z,2.22
2023-08-20T19:29:14.674Z,2.08
2023-08-20T19:31:41.630Z,1.95
2023-08-20T19:34:08.559Z,2.55
2023-08-20T19:36:35.600Z,2.88
2023-08-20T19:39:02.197Z,2.58
2023-08-20T19:41:28.843Z,2.05
2023-08-20T19:43:55.625Z,3.13
2023-08-20T19:46:24.238Z,1.63
2023-08-20T19:48:53.168Z,3.83
2023-08-20T19:51:19.892Z,2.67
2023-08-20T19:53:46.921Z,2.47
2023-08-20T19:56:13.629Z,2.28
2023-08-20T19:58:40.653Z,2.10
2023-08-20T20:01:07.790Z,3.65
2023-08-20T20:03:34.787Z,2.05
2023-08-20T20:06:01.648Z,2.28
2023-08-20T20:08:28.689Z,2.22
2023-08-20T20:10:55.763Z,2.25
2023-08-20T20:13:22.646Z,2.92
2023-08-20T20:15:49.270Z,1.75
2023-08-20T20:18:16.125Z,2.60
2023-08-20T20:20:43.279Z,1.80
2023-08-20T20:23:10.000Z,1.40
2023-08-20T20:25:36.732Z,1.80
2023-08-20T20:28:04.568Z,1.90
2023-08-20T20:30:31.587Z,2.53
2023-08-20T20:33:01.757Z,2.45
2023-08-20T20:35:32.330Z,2.72
2023-08-20T20:37:59.259Z,3.22
2023-08-20T20:40:26.009Z,2.15
2023-08-20T20:42:52.944Z,2.55
2023-08-20T20:45:19.756Z,2.33
2023-08-20T20:47:46.664Z,2.72
2023-08-20T20:50:13.541Z,3.35
2023-08-20T20:52:40.596Z,2.05
2023-08-20T20:55:09.336Z,2.53
2023-08-20T20:57:36.685Z,2.30
2023-08-20T21:00:04.253Z,2.83
2023-08-20T21:02:32.500Z,2.60
2023-08-20T21:04:59.563Z,1.90
2023-08-20T21:07:26.334Z,2.67
2023-08-20T21:09:53.218Z,2.05
2023-08-20T21:12:20.045Z,2.47
2023-08-20T21:14:46.794Z,1.75
2023-08-20T21:17:14.592Z,2.20
2023-08-20T21:19:41.486Z,2.47
2023-08-20T21:22:15.308Z,2.08
2023-08-20T21:24:42.798Z,2.08
2023-08-20T21:27:09.547Z,3.03
2023-08-20T21:29:37.649Z,2.15
2023-08-20T21:32:05.593Z,2.00
2023-08-20T21:34:32.893Z,2.28
2023-08-20T21:37:00.261Z,2.97
2023-08-20T21:39:27.402Z,4.00
2023-08-20T21:41:54.386Z,2.90
2023-08-20T21:44:21.592Z,3.25
2023-08-20T21:46:48.232Z,2.80
2023-08-20T21:49:18.538Z,3.55
2023-08-20T21:51:45.294Z,3.38
2023-08-20T21:54:11.991Z,1.92
2023-08-20T21:56:38.794Z,1.92
2023-08-20T21:59:05.682Z,3.55
2023-08-20T22:01:32.557Z,3.15
2023-08-20T22:03:59.401Z,4.47
2023-08-20T22:06:26.276Z,3.30
2023-08-20T22:08:54.745Z,1.90
2023-08-20T22:11:21.363Z,3.25
2023-08-20T22:13:48.142Z,2.83
2023-08-20T22:16:15.493Z,3.20
2023-08-20T22:18:42.531Z,2.67
2023-08-20T22:21:09.150Z,2.33
2023-08-20T22:23:36.081Z,2.10
2023-08-20T22:26:02.683Z,3.25
2023-08-20T22:28:29.589Z,2.58
2023-08-20T22:30:56.409Z,1.77
2023-08-20T22:33:23.124Z,1.73
2023-08-20T22:35:51.348Z,3.38
2023-08-20T22:38:18.633Z,3.20
2023-08-20T22:40:45.439Z,2.10
2023-08-20T22:43:12.193Z,2.85
2023-08-20T22:45:38.908Z,1.80
2023-08-20T22:48:05.893Z,1.92
2023-08-20T22:50:32.908Z,3.60
2023-08-20T22:52:59.729Z,3.30
2023-08-20T22:55:26.599Z,2.72
2023-08-20T22:57:53.942Z,3.65
2023-08-20T23:00:22.828Z,4.38
2023-08-20T23:02:50.129Z,2.47
2023-08-20T23:05:17.100Z,1.98
2023-08-20T23:07:43.845Z,2.55
2023-08-20T23:10:10.933Z,2.78
2023-08-20T23:12:38.181Z,3.60
2023-08-20T23:15:06.266Z,2.53
2023-08-20T23:17:36.451Z,2.22
2023-08-20T23:20:05.697Z,3.15
2023-08-20T23:22:32.512Z,2.70
2023-08-20T23:24:59.176Z,2.55
2023-08-20T23:27:25.888Z,2.97
2023-08-20T23:29:52.680Z,1.85
2023-08-20T23:32:19.414Z,1.90
2023-08-20T23:34:46.072Z,2.17
2023-08-20T23:37:12.779Z,2.95
2023-08-20T23:39:39.688Z,2.97
2023-08-20T23:42:06.709Z,4.47
2023-08-20T23:44:34.463Z,2.25
2023-08-20T23:47:01.306Z,3.00
2023-08-20T23:49:28.035Z,2.28
2023-08-20T23:51:54.832Z,3.75
2023-08-20T23:54:21.496Z,2.65
2023-08-20T23:56:48.298Z,2.58
2023-08-20T23:59:15.942Z,2.97
